sensor_id;sensor_type;location;lat;lon;timestamp;P1;durP1;ratioP1;P2;durP2;ratioP2
5127;SDS011;2582;48.770;9.190;2022-11-15T00:01:35;5.27;;;4.87;;
5127;SDS011;2582;48.770;9.190;2022-11-15T00:04:02;5.50;;;5.00;;
5127;SDS011;2582;48.770;9.190;2022-11-15T00:06:28;5.63;;;5.13;;
5127;SDS011;2582;48.770;9.190;2022-11-15T00:08:54;5.90;;;5.30;;
5127;SDS011;2582;48.770;9.190;2022-11-15T00:11:22;6.70;;;5.40;;
5127;SDS011;2582;48.770;9.190;2022-11-15T00:13:48;6.00;;;5.50;;
5127;SDS011;2582;48.770;9.190;2022-11-15T00:16:13;6.10;;;5.47;;
5127;SDS011;2582;48.770;9.190;2022-11-15T00:18:39;8.30;;;4.83;;
5127;SDS011;2582;48.770;9.190;2022-11-15T00:21:06;6.10;;;5.40;;
5127;SDS011;2582;48.770;9.190;2022-11-15T00:23:36;8.07;;;5.63;;
5127;SDS011;2582;48.770;9.190;2022-11-15T00:26:02;6.50;;;5.10;;
5127;SDS011;2582;48.770;9.190;2022-11-15T00:28:28;6.33;;;5.60;;
5127;SDS011;2582;48.770;9.190;2022-11-15T00:30:59;5.80;;;5.17;;
5127;SDS011;2582;48.770;9.190;2022-11-15T00:33:26;7.13;;;5.17;;
5127;SDS011;2582;48.770;9.190;2022-11-15T00:35:51;6.53;;;5.87;;
5127;SDS011;2582;48.770;9.190;2022-11-15T00:38:17;15.30;;;9.70;;
5127;SDS011;2582;48.770;9.190;2022-11-15T00:40:42;8.03;;;6.33;;
5127;SDS011;2582;48.770;9.190;2022-11-15T00:43:08;6.73;;;5.57;;
5127;SDS011;2582;48.770;9.190;2022-11-15T00:45:33;9.00;;;6.03;;
5127;SDS011;2582;48.770;9.190;2022-11-15T00:47:59;9.80;;;6.67;;
5127;SDS011;2582;48.770;9.190;2022-11-15T00:50:25;6.53;;;5.83;;
5127;SDS011;2582;48.770;9.190;2022-11-15T00:52:50;7.80;;;5.80;;
5127;SDS011;2582;48.770;9.190;2022-11-15T00:55:16;7.90;;;6.10;;
5127;SDS011;2582;48.770;9.190;2022-11-15T00:57:43;7.40;;;5.87;;
5127;SDS011;2582;48.770;9.190;2022-11-15T01:00:09;7.30;;;5.70;;
5127;SDS011;2582;48.770;9.190;2022-11-15T01:02:35;7.60;;;5.10;;
5127;SDS011;2582;48.770;9.190;2022-11-15T01:05:01;8.60;;;5.60;;
5127;SDS011;2582;48.770;9.190;2022-11-15T01:07:26;6.67;;;4.70;;
5127;SDS011;2582;48.770;9.190;2022-11-15T01:09:52;7.73;;;5.00;;
5127;SDS011;2582;48.770;9.190;2022-11-15T01:12:17;5.47;;;4.97;;
5127;SDS011;2582;48.770;9.190;2022-11-15T01:14:43;6.57;;;5.13;;
5127;SDS011;2582;48.770;9.190;2022-11-15T01:17:08;8.73;;;4.70;;
5127;SDS011;2582;48.770;9.190;2022-11-15T01:19:34;5.27;;;4.10;;
5127;SDS011;2582;48.770;9.190;2022-11-15T01:21:59;5.07;;;4.43;;
5127;SDS011;2582;48.770;9.190;2022-11-15T01:24:25;5.47;;;4.00;;
5127;SDS011;2582;48.770;9.190;2022-11-15T01:26:51;4.43;;;3.60;;
5127;SDS011;2582;48.770;9.190;2022-11-15T01:29:16;5.50;;;3.60;;
5127;SDS011;2582;48.770;9.190;2022-11-15T01:31:42;4.77;;;4.00;;
5127;SDS011;2582;48.770;9.190;2022-11-15T01:34:07;4.37;;;3.40;;
5127;SDS011;2582;48.770;9.190;2022-11-15T01:36:33;3.60;;;3.30;;
5127;SDS011;2582;48.770;9.190;2022-11-15T01:38:59;3.80;;;3.33;;
5127;SDS011;2582;48.770;9.190;2022-11-15T01:41:25;3.80;;;3.27;;
5127;SDS011;2582;48.770;9.190;2022-11-15T01:43:53;4.70;;;3.40;;
5127;SDS011;2582;48.770;9.190;2022-11-15T01:48:46;2.63;;;2.40;;
5127;SDS011;2582;48.770;9.190;2022-11-15T01:51:13;4.80;;;3.77;;
5127;SDS011;2582;48.770;9.190;2022-11-15T01:53:41;2.77;;;2.50;;
5127;SDS011;2582;48.770;9.190;2022-11-15T01:56:11;3.20;;;2.57;;
5127;SDS011;2582;48.770;9.190;2022-11-15T01:58:40;3.43;;;3.13;;
5127;SDS011;2582;48.770;9.190;2022-11-15T02:01:08;3.73;;;2.90;;
5127;SDS011;2582;48.770;9.190;2022-11-15T02:03:39;7.43;;;3.07;;
5127;SDS011;2582;48.770;9.190;2022-11-15T02:06:27;3.97;;;3.30;;
5127;SDS011;2582;48.770;9.190;2022-11-15T02:08:52;5.00;;;3.50;;
5127;SDS011;2582;48.770;9.190;2022-11-15T02:11:19;2.93;;;2.60;;
5127;SDS011;2582;48.770;9.190;2022-11-15T02:13:45;3.70;;;2.70;;
5127;SDS011;2582;48.770;9.190;2022-11-15T02:18:52;4.50;;;3.70;;
5127;SDS011;2582;48.770;9.190;2022-11-15T02:29:48;4.20;;;2.60;;
5127;SDS011;2582;48.770;9.190;2022-11-15T02:32:44;3.47;;;2.77;;
5127;SDS011;2582;48.770;9.190;2022-11-15T02:40:37;3.67;;;3.20;;
5127;SDS011;2582;48.770;9.190;2022-11-15T02:43:46;3.93;;;3.30;;
5127;SDS011;2582;48.770;9.190;2022-11-15T02:46:31;6.43;;;2.90;;
5127;SDS011;2582;48.770;9.190;2022-11-15T02:49:26;3.00;;;2.70;;
5127;SDS011;2582;48.770;9.190;2022-11-15T02:51:56;4.10;;;3.00;;
5127;SDS011;2582;48.770;9.190;2022-11-15T02:54:23;3.80;;;3.17;;
5127;SDS011;2582;48.770;9.190;2022-11-15T02:56:54;3.83;;;3.30;;
5127;SDS011;2582;48.770;9.190;2022-11-15T02:59:30;3.50;;;2.90;;
5127;SDS011;2582;48.770;9.190;2022-11-15T03:04:43;2.97;;;2.73;;
5127;SDS011;2582;48.770;9.190;2022-11-15T03:07:34;3.73;;;3.27;;
5127;SDS011;2582;48.770;9.190;2022-11-15T03:15:28;3.27;;;2.97;;
5127;SDS011;2582;48.770;9.190;2022-11-15T03:18:01;3.33;;;2.73;;
5127;SDS011;2582;48.770;9.190;2022-11-15T03:20:31;2.70;;;2.50;;
5127;SDS011;2582;48.770;9.190;2022-11-15T03:23:00;4.07;;;2.90;;
5127;SDS011;2582;48.770;9.190;2022-11-15T03:25:30;3.10;;;2.87;;
5127;SDS011;2582;48.770;9.190;2022-11-15T03:27:58;5.10;;;3.50;;
5127;SDS011;2582;48.770;9.190;2022-11-15T03:30:27;2.80;;;2.60;;
5127;SDS011;2582;48.770;9.190;2022-11-15T03:32:56;4.43;;;2.90;;
5127;SDS011;2582;48.770;9.190;2022-11-15T03:35:27;5.47;;;3.10;;
5127;SDS011;2582;48.770;9.190;2022-11-15T03:37:57;3.43;;;2.90;;
5127;SDS011;2582;48.770;9.190;2022-11-15T03:40:53;4.47;;;3.50;;
5127;SDS011;2582;48.770;9.190;2022-11-15T03:46:00;3.63;;;3.10;;
5127;SDS011;2582;48.770;9.190;2022-11-15T03:48:35;4.07;;;3.67;;
5127;SDS011;2582;48.770;9.190;2022-11-15T03:51:08;2.70;;;2.50;;
5127;SDS011;2582;48.770;9.190;2022-11-15T03:53:34;2.67;;;2.47;;
5127;SDS011;2582;48.770;9.190;2022-11-15T03:56:00;2.90;;;2.47;;
5127;SDS011;2582;48.770;9.190;2022-11-15T03:58:25;4.43;;;3.40;;
5127;SDS011;2582;48.770;9.190;2022-11-15T04:00:51;3.93;;;3.53;;
5127;SDS011;2582;48.770;9.190;2022-11-15T04:03:16;4.60;;;2.73;;
5127;SDS011;2582;48.770;9.190;2022-11-15T04:05:42;4.70;;;2.70;;
5127;SDS011;2582;48.770;9.190;2022-11-15T04:08:07;2.90;;;2.40;;
5127;SDS011;2582;48.770;9.190;2022-11-15T04:10:33;4.40;;;3.53;;
5127;SDS011;2582;48.770;9.190;2022-11-15T04:12:58;3.50;;;2.50;;
5127;SDS011;2582;48.770;9.190;2022-11-15T04:15:24;4.20;;;2.77;;
5127;SDS011;2582;48.770;9.190;2022-11-15T04:17:51;4.60;;;3.10;;
5127;SDS011;2582;48.770;9.190;2022-11-15T04:20:22;3.57;;;3.27;;
5127;SDS011;2582;48.770;9.190;2022-11-15T04:23:09;3.77;;;2.70;;
5127;SDS011;2582;48.770;9.190;2022-11-15T04:25:55;3.33;;;2.70;;
5127;SDS011;2582;48.770;9.190;2022-11-15T04:28:23;3.43;;;3.07;;
5127;SDS011;2582;48.770;9.190;2022-11-15T04:30:49;4.93;;;3.23;;
5127;SDS011;2582;48.770;9.190;2022-11-15T04:33:14;3.40;;;2.60;;
5127;SDS011;2582;48.770;9.190;2022-11-15T04:35:40;4.27;;;3.33;;
5127;SDS011;2582;48.770;9.190;2022-11-15T04:38:07;3.20;;;2.80;;
5127;SDS011;2582;48.770;9.190;2022-11-15T04:40:34;3.20;;;2.90;;
5127;SDS011;2582;48.770;9.190;2022-11-15T04:43:00;4.20;;;3.10;;
5127;SDS011;2582;48.770;9.190;2022-11-15T04:45:26;3.30;;;3.00;;
5127;SDS011;2582;48.770;9.190;2022-11-15T04:47:51;3.73;;;2.67;;
5127;SDS011;2582;48.770;9.190;2022-11-15T04:50:17;3.77;;;3.37;;
5127;SDS011;2582;48.770;9.190;2022-11-15T04:52:43;4.00;;;3.60;;
5127;SDS011;2582;48.770;9.190;2022-11-15T04:55:16;3.70;;;3.10;;
5127;SDS011;2582;48.770;9.190;2022-11-15T04:57:41;3.70;;;3.07;;
5127;SDS011;2582;48.770;9.190;2022-11-15T05:00:08;5.07;;;2.90;;
5127;SDS011;2582;48.770;9.190;2022-11-15T05:02:35;6.00;;;3.27;;
5127;SDS011;2582;48.770;9.190;2022-11-15T05:05:19;3.03;;;2.73;;
5127;SDS011;2582;48.770;9.190;2022-11-15T05:07:45;5.30;;;3.23;;
5127;SDS011;2582;48.770;9.190;2022-11-15T05:10:11;4.20;;;3.87;;
5127;SDS011;2582;48.770;9.190;2022-11-15T05:12:36;3.37;;;2.83;;
5127;SDS011;2582;48.770;9.190;2022-11-15T05:15:02;4.57;;;3.00;;
5127;SDS011;2582;48.770;9.190;2022-11-15T05:17:28;4.33;;;2.70;;
5127;SDS011;2582;48.770;9.190;2022-11-15T05:19:54;3.83;;;3.53;;
5127;SDS011;2582;48.770;9.190;2022-11-15T05:22:19;4.47;;;3.70;;
5127;SDS011;2582;48.770;9.190;2022-11-15T05:24:45;3.90;;;3.50;;
5127;SDS011;2582;48.770;9.190;2022-11-15T05:27:10;3.70;;;3.17;;
5127;SDS011;2582;48.770;9.190;2022-11-15T05:29:36;4.40;;;2.97;;
5127;SDS011;2582;48.770;9.190;2022-11-15T05:32:03;4.40;;;2.87;;
5127;SDS011;2582;48.770;9.190;2022-11-15T05:34:30;4.90;;;3.60;;
5127;SDS011;2582;48.770;9.190;2022-11-15T05:36:56;4.37;;;3.10;;
5127;SDS011;2582;48.770;9.190;2022-11-15T05:39:21;3.70;;;3.40;;
5127;SDS011;2582;48.770;9.190;2022-11-15T05:41:51;4.00;;;3.30;;
5127;SDS011;2582;48.770;9.190;2022-11-15T05:44:20;4.33;;;3.60;;
5127;SDS011;2582;48.770;9.190;2022-11-15T05:46:48;3.03;;;2.60;;
5127;SDS011;2582;48.770;9.190;2022-11-15T05:49:16;3.53;;;2.73;;
5127;SDS011;2582;48.770;9.190;2022-11-15T05:51:44;4.43;;;2.83;;
5127;SDS011;2582;48.770;9.190;2022-11-15T05:54:13;7.00;;;3.80;;
5127;SDS011;2582;48.770;9.190;2022-11-15T05:56:39;4.07;;;3.10;;
5127;SDS011;2582;48.770;9.190;2022-11-15T05:59:05;5.40;;;3.50;;
5127;SDS011;2582;48.770;9.190;2022-11-15T06:01:33;4.50;;;3.03;;
5127;SDS011;2582;48.770;9.190;2022-11-15T06:03:58;3.73;;;2.73;;
5127;SDS011;2582;48.770;9.190;2022-11-15T06:06:24;4.60;;;2.67;;
5127;SDS011;2582;48.770;9.190;2022-11-15T06:08:49;4.40;;;3.70;;
5127;SDS011;2582;48.770;9.190;2022-11-15T06:11:15;3.40;;;3.00;;
5127;SDS011;2582;48.770;9.190;2022-11-15T06:13:41;5.70;;;3.10;;
5127;SDS011;2582;48.770;9.190;2022-11-15T06:16:06;4.47;;;3.00;;
5127;SDS011;2582;48.770;9.190;2022-11-15T06:18:32;5.63;;;3.73;;
5127;SDS011;2582;48.770;9.190;2022-11-15T06:20:59;5.00;;;3.30;;
5127;SDS011;2582;48.770;9.190;2022-11-15T06:23:25;3.90;;;2.67;;
5127;SDS011;2582;48.770;9.190;2022-11-15T06:25:50;3.80;;;3.50;;
5127;SDS011;2582;48.770;9.190;2022-11-15T06:28:16;6.30;;;4.40;;
5127;SDS011;2582;48.770;9.190;2022-11-15T06:30:42;4.63;;;3.83;;
5127;SDS011;2582;48.770;9.190;2022-11-15T06:33:07;5.93;;;3.70;;
5127;SDS011;2582;48.770;9.190;2022-11-15T06:35:34;3.37;;;3.07;;
5127;SDS011;2582;48.770;9.190;2022-11-15T06:38:07;4.73;;;3.83;;
5127;SDS011;2582;48.770;9.190;2022-11-15T06:40:34;5.00;;;4.50;;
5127;SDS011;2582;48.770;9.190;2022-11-15T06:43:01;5.73;;;4.03;;
5127;SDS011;2582;48.770;9.190;2022-11-15T06:45:27;5.43;;;4.40;;
5127;SDS011;2582;48.770;9.190;2022-11-15T06:47:52;12.33;;;3.90;;
5127;SDS011;2582;48.770;9.190;2022-11-15T06:50:18;5.90;;;4.10;;
5127;SDS011;2582;48.770;9.190;2022-11-15T06:52:44;5.50;;;3.43;;
5127;SDS011;2582;48.770;9.190;2022-11-15T06:55:10;6.17;;;4.13;;
5127;SDS011;2582;48.770;9.190;2022-11-15T06:57:35;9.40;;;6.20;;
5127;SDS011;2582;48.770;9.190;2022-11-15T07:00:03;10.67;;;9.57;;
5127;SDS011;2582;48.770;9.190;2022-11-15T07:02:29;10.00;;;5.07;;
5127;SDS011;2582;48.770;9.190;2022-11-15T07:04:55;5.50;;;4.90;;
5127;SDS011;2582;48.770;9.190;2022-11-15T07:07:21;6.67;;;5.50;;
5127;SDS011;2582;48.770;9.190;2022-11-15T07:09:46;7.90;;;5.47;;
5127;SDS011;2582;48.770;9.190;2022-11-15T07:12:12;5.70;;;5.20;;
5127;SDS011;2582;48.770;9.190;2022-11-15T07:14:38;6.43;;;5.73;;
5127;SDS011;2582;48.770;9.190;2022-11-15T07:17:04;4.97;;;4.50;;
5127;SDS011;2582;48.770;9.190;2022-11-15T07:19:30;4.90;;;4.40;;
5127;SDS011;2582;48.770;9.190;2022-11-15T07:21:56;5.33;;;4.47;;
5127;SDS011;2582;48.770;9.190;2022-11-15T07:24:21;7.53;;;4.20;;
5127;SDS011;2582;48.770;9.190;2022-11-15T07:26:47;5.47;;;4.90;;
5127;SDS011;2582;48.770;9.190;2022-11-15T07:29:12;5.37;;;4.87;;
5127;SDS011;2582;48.770;9.190;2022-11-15T07:31:38;4.33;;;3.93;;
5127;SDS011;2582;48.770;9.190;2022-11-15T07:34:04;5.93;;;4.80;;
5127;SDS011;2582;48.770;9.190;2022-11-15T07:36:29;5.10;;;4.60;;
5127;SDS011;2582;48.770;9.190;2022-11-15T07:38:55;5.50;;;4.97;;
5127;SDS011;2582;48.770;9.190;2022-11-15T07:41:20;4.87;;;4.37;;
5127;SDS011;2582;48.770;9.190;2022-11-15T07:43:46;6.20;;;4.53;;
5127;SDS011;2582;48.770;9.190;2022-11-15T07:46:11;5.53;;;5.07;;
5127;SDS011;2582;48.770;9.190;2022-11-15T07:48:37;5.00;;;4.43;;
5127;SDS011;2582;48.770;9.190;2022-11-15T07:51:05;6.07;;;4.40;;
5127;SDS011;2582;48.770;9.190;2022-11-15T07:53:31;7.27;;;5.10;;
5127;SDS011;2582;48.770;9.190;2022-11-15T07:55:57;9.43;;;6.70;;
5127;SDS011;2582;48.770;9.190;2022-11-15T07:58:23;7.60;;;5.63;;
5127;SDS011;2582;48.770;9.190;2022-11-15T08:00:48;6.20;;;5.47;;
5127;SDS011;2582;48.770;9.190;2022-11-15T08:03:14;5.83;;;5.17;;
5127;SDS011;2582;48.770;9.190;2022-11-15T08:05:41;10.67;;;6.63;;
5127;SDS011;2582;48.770;9.190;2022-11-15T08:08:08;7.30;;;6.13;;
5127;SDS011;2582;48.770;9.190;2022-11-15T08:10:35;10.43;;;7.37;;
5127;SDS011;2582;48.770;9.190;2022-11-15T08:13:02;9.83;;;8.00;;
5127;SDS011;2582;48.770;9.190;2022-11-15T08:15:30;8.70;;;6.00;;
5127;SDS011;2582;48.770;9.190;2022-11-15T08:17:57;6.60;;;5.70;;
5127;SDS011;2582;48.770;9.190;2022-11-15T08:20:24;4.90;;;4.30;;
5127;SDS011;2582;48.770;9.190;2022-11-15T08:22:50;5.07;;;4.67;;
5127;SDS011;2582;48.770;9.190;2022-11-15T08:25:16;11.20;;;5.97;;
5127;SDS011;2582;48.770;9.190;2022-11-15T08:27:41;8.67;;;5.60;;
5127;SDS011;2582;48.770;9.190;2022-11-15T08:30:07;6.23;;;5.10;;
5127;SDS011;2582;48.770;9.190;2022-11-15T08:32:33;8.00;;;5.40;;
5127;SDS011;2582;48.770;9.190;2022-11-15T08:34:59;7.93;;;4.50;;
5127;SDS011;2582;48.770;9.190;2022-11-15T08:37:24;5.47;;;4.90;;
5127;SDS011;2582;48.770;9.190;2022-11-15T08:39:50;7.50;;;5.60;;
5127;SDS011;2582;48.770;9.190;2022-11-15T08:42:16;6.90;;;5.63;;
5127;SDS011;2582;48.770;9.190;2022-11-15T08:44:41;7.07;;;5.03;;
5127;SDS011;2582;48.770;9.190;2022-11-15T08:47:07;5.00;;;4.50;;
5127;SDS011;2582;48.770;9.190;2022-11-15T08:49:35;6.17;;;4.53;;
5127;SDS011;2582;48.770;9.190;2022-11-15T08:52:01;5.10;;;4.33;;
5127;SDS011;2582;48.770;9.190;2022-11-15T08:54:26;5.00;;;4.17;;
5127;SDS011;2582;48.770;9.190;2022-11-15T08:56:52;6.80;;;5.13;;
5127;SDS011;2582;48.770;9.190;2022-11-15T08:59:18;8.20;;;5.50;;
5127;SDS011;2582;48.770;9.190;2022-11-15T09:01:43;6.53;;;4.57;;
5127;SDS011;2582;48.770;9.190;2022-11-15T09:04:09;5.40;;;4.90;;
5127;SDS011;2582;48.770;9.190;2022-11-15T09:06:34;5.47;;;4.83;;
5127;SDS011;2582;48.770;9.190;2022-11-15T09:09:00;5.60;;;4.93;;
5127;SDS011;2582;48.770;9.190;2022-11-15T09:11:27;6.60;;;5.73;;
5127;SDS011;2582;48.770;9.190;2022-11-15T09:13:52;6.00;;;5.50;;
5127;SDS011;2582;48.770;9.190;2022-11-15T09:16:18;9.73;;;6.43;;
5127;SDS011;2582;48.770;9.190;2022-11-15T09:18:43;8.93;;;6.20;;
5127;SDS011;2582;48.770;9.190;2022-11-15T09:21:09;8.30;;;6.07;;
5127;SDS011;2582;48.770;9.190;2022-11-15T09:23:35;6.80;;;5.87;;
5127;SDS011;2582;48.770;9.190;2022-11-15T09:26:01;7.63;;;5.77;;
5127;SDS011;2582;48.770;9.190;2022-11-15T09:28:28;7.40;;;5.43;;
5127;SDS011;2582;48.770;9.190;2022-11-15T09:30:58;5.60;;;5.10;;
5127;SDS011;2582;48.770;9.190;2022-11-15T09:33:25;5.10;;;4.60;;
5127;SDS011;2582;48.770;9.190;2022-11-15T09:35:51;6.43;;;5.23;;
5127;SDS011;2582;48.770;9.190;2022-11-15T09:38:17;7.27;;;5.50;;
5127;SDS011;2582;48.770;9.190;2022-11-15T09:40:43;6.50;;;5.40;;
5127;SDS011;2582;48.770;9.190;2022-11-15T09:51:25;9.00;;;6.33;;
5127;SDS011;2582;48.770;9.190;2022-11-15T09:56:35;6.50;;;5.90;;
5127;SDS011;2582;48.770;9.190;2022-11-15T09:59:15;10.87;;;6.03;;
5127;SDS011;2582;48.770;9.190;2022-11-15T10:02:21;6.40;;;5.67;;
5127;SDS011;2582;48.770;9.190;2022-11-15T10:05:01;7.90;;;4.60;;
5127;SDS011;2582;48.770;9.190;2022-11-15T10:12:56;9.70;;;5.37;;
5127;SDS011;2582;48.770;9.190;2022-11-15T10:15:23;5.20;;;4.10;;
5127;SDS011;2582;48.770;9.190;2022-11-15T10:18:04;5.10;;;4.57;;
5127;SDS011;2582;48.770;9.190;2022-11-15T10:20:33;5.77;;;4.63;;
5127;SDS011;2582;48.770;9.190;2022-11-15T10:23:10;4.60;;;4.13;;
5127;SDS011;2582;48.770;9.190;2022-11-15T10:25:38;5.30;;;4.00;;
5127;SDS011;2582;48.770;9.190;2022-11-15T10:30:47;7.90;;;4.80;;
5127;SDS011;2582;48.770;9.190;2022-11-15T10:44:07;4.87;;;3.63;;
5127;SDS011;2582;48.770;9.190;2022-11-15T10:46:40;6.67;;;3.70;;
5127;SDS011;2582;48.770;9.190;2022-11-15T10:51:49;3.67;;;3.37;;
5127;SDS011;2582;48.770;9.190;2022-11-15T10:55:05;4.27;;;3.77;;
5127;SDS011;2582;48.770;9.190;2022-11-15T10:57:28;4.33;;;2.77;;
5127;SDS011;2582;48.770;9.190;2022-11-15T11:00:38;4.00;;;2.83;;
5127;SDS011;2582;48.770;9.190;2022-11-15T11:02:47;3.33;;;2.50;;
5127;SDS011;2582;48.770;9.190;2022-11-15T11:05:30;6.20;;;3.20;;
5127;SDS011;2582;48.770;9.190;2022-11-15T11:08:03;6.60;;;3.33;;
5127;SDS011;2582;48.770;9.190;2022-11-15T11:10:53;4.43;;;2.23;;
5127;SDS011;2582;48.770;9.190;2022-11-15T11:13:23;3.20;;;2.47;;
5127;SDS011;2582;48.770;9.190;2022-11-15T11:15:59;3.93;;;2.47;;
5127;SDS011;2582;48.770;9.190;2022-11-15T11:18:33;7.10;;;3.70;;
5127;SDS011;2582;48.770;9.190;2022-11-15T11:21:10;3.70;;;3.00;;
5127;SDS011;2582;48.770;9.190;2022-11-15T11:23:45;3.90;;;2.73;;
5127;SDS011;2582;48.770;9.190;2022-11-15T11:26:41;4.47;;;2.70;;
5127;SDS011;2582;48.770;9.190;2022-11-15T11:29:21;3.40;;;3.07;;
5127;SDS011;2582;48.770;9.190;2022-11-15T11:31:54;7.50;;;3.17;;
5127;SDS011;2582;48.770;9.190;2022-11-15T11:37:20;5.23;;;3.17;;
5127;SDS011;2582;48.770;9.190;2022-11-15T11:42:26;4.47;;;3.03;;
5127;SDS011;2582;48.770;9.190;2022-11-15T11:47:40;2.77;;;2.40;;
5127;SDS011;2582;48.770;9.190;2022-11-15T11:50:28;6.40;;;2.97;;
5127;SDS011;2582;48.770;9.190;2022-11-15T11:52:58;5.07;;;2.73;;
5127;SDS011;2582;48.770;9.190;2022-11-15T11:55:34;4.83;;;3.57;;
5127;SDS011;2582;48.770;9.190;2022-11-15T12:00:43;4.10;;;2.70;;
5127;SDS011;2582;48.770;9.190;2022-11-15T12:08:47;6.23;;;2.50;;
5127;SDS011;2582;48.770;9.190;2022-11-15T12:11:20;7.40;;;3.00;;
5127;SDS011;2582;48.770;9.190;2022-11-15T12:13:50;3.83;;;2.87;;
5127;SDS011;2582;48.770;9.190;2022-11-15T12:16:27;4.63;;;2.90;;
5127;SDS011;2582;48.770;9.190;2022-11-15T12:18:56;6.67;;;2.77;;
5127;SDS011;2582;48.770;9.190;2022-11-15T12:21:34;6.30;;;3.57;;
5127;SDS011;2582;48.770;9.190;2022-11-15T12:24:20;4.60;;;3.07;;
5127;SDS011;2582;48.770;9.190;2022-11-15T12:27:03;4.03;;;3.13;;
5127;SDS011;2582;48.770;9.190;2022-11-15T12:29:39;5.83;;;3.80;;
5127;SDS011;2582;48.770;9.190;2022-11-15T12:32:18;5.10;;;3.20;;
5127;SDS011;2582;48.770;9.190;2022-11-15T12:34:53;4.80;;;3.63;;
5127;SDS011;2582;48.770;9.190;2022-11-15T12:37:33;5.33;;;3.63;;
5127;SDS011;2582;48.770;9.190;2022-11-15T12:43:36;4.97;;;3.33;;
5127;SDS011;2582;48.770;9.190;2022-11-15T12:45:42;5.57;;;4.00;;
5127;SDS011;2582;48.770;9.190;2022-11-15T12:50:56;3.77;;;3.40;;
5127;SDS011;2582;48.770;9.190;2022-11-15T12:58:54;4.93;;;3.30;;
5127;SDS011;2582;48.770;9.190;2022-11-15T13:04:11;7.10;;;3.20;;
5127;SDS011;2582;48.770;9.190;2022-11-15T13:06:50;4.90;;;3.50;;
5127;SDS011;2582;48.770;9.190;2022-11-15T13:11:57;4.10;;;3.63;;
5127;SDS011;2582;48.770;9.190;2022-11-15T13:19:45;7.80;;;4.27;;
5127;SDS011;2582;48.770;9.190;2022-11-15T13:22:12;4.00;;;3.70;;
5127;SDS011;2582;48.770;9.190;2022-11-15T13:24:57;4.10;;;3.70;;
5127;SDS011;2582;48.770;9.190;2022-11-15T13:27:23;5.63;;;4.03;;
5127;SDS011;2582;48.770;9.190;2022-11-15T13:29:50;5.73;;;4.13;;
5127;SDS011;2582;48.770;9.190;2022-11-15T13:32:16;4.70;;;3.77;;
5127;SDS011;2582;48.770;9.190;2022-11-15T13:34:45;4.03;;;3.63;;
5127;SDS011;2582;48.770;9.190;2022-11-15T13:39:48;4.60;;;4.20;;
5127;SDS011;2582;48.770;9.190;2022-11-15T13:42:14;4.60;;;4.20;;
5127;SDS011;2582;48.770;9.190;2022-11-15T13:44:54;4.13;;;3.57;;
5127;SDS011;2582;48.770;9.190;2022-11-15T13:47:27;4.67;;;4.27;;
5127;SDS011;2582;48.770;9.190;2022-11-15T13:49:56;5.70;;;3.67;;
5127;SDS011;2582;48.770;9.190;2022-11-15T13:52:22;4.27;;;3.70;;
5127;SDS011;2582;48.770;9.190;2022-11-15T13:57:42;5.20;;;3.67;;
5127;SDS011;2582;48.770;9.190;2022-11-15T14:00:26;7.37;;;4.37;;
5127;SDS011;2582;48.770;9.190;2022-11-15T14:03:05;8.67;;;4.50;;
5127;SDS011;2582;48.770;9.190;2022-11-15T14:05:40;7.83;;;3.90;;
5127;SDS011;2582;48.770;9.190;2022-11-15T14:08:21;5.53;;;4.50;;
5127;SDS011;2582;48.770;9.190;2022-11-15T14:10:48;5.60;;;3.90;;
5127;SDS011;2582;48.770;9.190;2022-11-15T14:13:31;6.73;;;4.60;;
5127;SDS011;2582;48.770;9.190;2022-11-15T14:16:13;9.07;;;5.10;;
5127;SDS011;2582;48.770;9.190;2022-11-15T14:18:47;5.30;;;4.40;;
5127;SDS011;2582;48.770;9.190;2022-11-15T14:21:15;5.23;;;4.13;;
5127;SDS011;2582;48.770;9.190;2022-11-15T14:23:41;9.03;;;4.90;;
5127;SDS011;2582;48.770;9.190;2022-11-15T14:26:11;7.00;;;4.50;;
5127;SDS011;2582;48.770;9.190;2022-11-15T14:29:20;8.03;;;4.90;;
5127;SDS011;2582;48.770;9.190;2022-11-15T14:31:48;6.13;;;4.20;;
5127;SDS011;2582;48.770;9.190;2022-11-15T14:34:14;5.83;;;4.27;;
5127;SDS011;2582;48.770;9.190;2022-11-15T14:36:39;7.60;;;4.83;;
5127;SDS011;2582;48.770;9.190;2022-11-15T14:39:05;10.87;;;5.27;;
5127;SDS011;2582;48.770;9.190;2022-11-15T14:41:34;9.73;;;5.00;;
5127;SDS011;2582;48.770;9.190;2022-11-15T14:44:02;6.50;;;4.70;;
5127;SDS011;2582;48.770;9.190;2022-11-15T14:46:29;4.50;;;4.10;;
5127;SDS011;2582;48.770;9.190;2022-11-15T14:48:54;6.77;;;4.40;;
5127;SDS011;2582;48.770;9.190;2022-11-15T14:51:20;7.53;;;4.30;;
5127;SDS011;2582;48.770;9.190;2022-11-15T14:53:46;7.50;;;4.53;;
5127;SDS011;2582;48.770;9.190;2022-11-15T14:56:12;9.90;;;4.67;;
5127;SDS011;2582;48.770;9.190;2022-11-15T14:58:38;5.30;;;4.40;;
5127;SDS011;2582;48.770;9.190;2022-11-15T15:01:17;7.47;;;4.73;;
5127;SDS011;2582;48.770;9.190;2022-11-15T15:03:48;7.30;;;4.50;;
5127;SDS011;2582;48.770;9.190;2022-11-15T15:06:16;5.90;;;4.20;;
5127;SDS011;2582;48.770;9.190;2022-11-15T15:08:42;5.00;;;4.00;;
5127;SDS011;2582;48.770;9.190;2022-11-15T15:11:12;7.80;;;4.30;;
5127;SDS011;2582;48.770;9.190;2022-11-15T15:13:45;9.60;;;5.50;;
5127;SDS011;2582;48.770;9.190;2022-11-15T15:16:11;6.40;;;4.43;;
5127;SDS011;2582;48.770;9.190;2022-11-15T15:18:36;5.03;;;4.00;;
5127;SDS011;2582;48.770;9.190;2022-11-15T15:21:02;5.17;;;4.40;;
5127;SDS011;2582;48.770;9.190;2022-11-15T15:23:36;5.13;;;4.57;;
5127;SDS011;2582;48.770;9.190;2022-11-15T15:26:01;6.03;;;4.37;;
5127;SDS011;2582;48.770;9.190;2022-11-15T15:28:27;6.77;;;5.10;;
5127;SDS011;2582;48.770;9.190;2022-11-15T15:30:53;6.93;;;4.97;;
5127;SDS011;2582;48.770;9.190;2022-11-15T15:33:18;5.17;;;4.67;;
5127;SDS011;2582;48.770;9.190;2022-11-15T15:35:44;5.63;;;4.77;;
5127;SDS011;2582;48.770;9.190;2022-11-15T15:38:10;8.03;;;4.47;;
5127;SDS011;2582;48.770;9.190;2022-11-15T15:40:37;6.93;;;6.00;;
5127;SDS011;2582;48.770;9.190;2022-11-15T15:43:02;7.10;;;5.07;;
5127;SDS011;2582;48.770;9.190;2022-11-15T15:45:28;6.27;;;5.17;;
5127;SDS011;2582;48.770;9.190;2022-11-15T15:47:55;6.07;;;4.30;;
5127;SDS011;2582;48.770;9.190;2022-11-15T15:52:48;5.43;;;4.63;;
5127;SDS011;2582;48.770;9.190;2022-11-15T15:55:15;5.60;;;4.80;;
5127;SDS011;2582;48.770;9.190;2022-11-15T15:57:41;5.50;;;4.90;;
5127;SDS011;2582;48.770;9.190;2022-11-15T16:00:06;5.73;;;5.13;;
5127;SDS011;2582;48.770;9.190;2022-11-15T16:02:33;8.87;;;6.70;;
5127;SDS011;2582;48.770;9.190;2022-11-15T16:04:59;5.43;;;4.33;;
5127;SDS011;2582;48.770;9.190;2022-11-15T16:07:24;6.10;;;4.93;;
5127;SDS011;2582;48.770;9.190;2022-11-15T16:09:50;4.83;;;4.13;;
5127;SDS011;2582;48.770;9.190;2022-11-15T16:12:24;6.50;;;4.90;;
5127;SDS011;2582;48.770;9.190;2022-11-15T16:14:53;6.50;;;5.07;;
5127;SDS011;2582;48.770;9.190;2022-11-15T16:17:21;8.73;;;6.07;;
5127;SDS011;2582;48.770;9.190;2022-11-15T16:19:49;12.73;;;8.83;;
5127;SDS011;2582;48.770;9.190;2022-11-15T16:22:14;14.80;;;9.63;;
5127;SDS011;2582;48.770;9.190;2022-11-15T16:24:40;15.30;;;12.63;;
5127;SDS011;2582;48.770;9.190;2022-11-15T16:27:09;14.23;;;9.73;;
5127;SDS011;2582;48.770;9.190;2022-11-15T16:29:40;14.17;;;10.70;;
5127;SDS011;2582;48.770;9.190;2022-11-15T16:32:05;10.30;;;9.10;;
5127;SDS011;2582;48.770;9.190;2022-11-15T16:34:31;10.33;;;7.80;;
5127;SDS011;2582;48.770;9.190;2022-11-15T16:36:57;6.20;;;5.03;;
5127;SDS011;2582;48.770;9.190;2022-11-15T16:39:22;7.80;;;5.80;;
5127;SDS011;2582;48.770;9.190;2022-11-15T16:41:48;6.70;;;5.77;;
5127;SDS011;2582;48.770;9.190;2022-11-15T16:44:13;8.33;;;5.87;;
5127;SDS011;2582;48.770;9.190;2022-11-15T16:46:42;10.47;;;6.20;;
5127;SDS011;2582;48.770;9.190;2022-11-15T16:49:14;8.60;;;5.37;;
5127;SDS011;2582;48.770;9.190;2022-11-15T16:51:44;6.03;;;5.43;;
5127;SDS011;2582;48.770;9.190;2022-11-15T16:54:12;7.20;;;5.70;;
5127;SDS011;2582;48.770;9.190;2022-11-15T16:56:38;6.93;;;6.00;;
5127;SDS011;2582;48.770;9.190;2022-11-15T16:59:04;6.90;;;6.20;;
5127;SDS011;2582;48.770;9.190;2022-11-15T17:01:31;7.30;;;6.27;;
5127;SDS011;2582;48.770;9.190;2022-11-15T17:03:59;9.33;;;6.30;;
5127;SDS011;2582;48.770;9.190;2022-11-15T17:06:38;7.50;;;5.80;;
5127;SDS011;2582;48.770;9.190;2022-11-15T17:09:05;8.53;;;6.40;;
5127;SDS011;2582;48.770;9.190;2022-11-15T17:11:35;6.53;;;5.87;;
5127;SDS011;2582;48.770;9.190;2022-11-15T17:14:00;11.70;;;6.53;;
5127;SDS011;2582;48.770;9.190;2022-11-15T17:16:26;6.13;;;5.53;;